الكل
New Town Muni Airport (New Town, ND) 05D حالة الطقس
There is no TAF data available at 05D or any nearby airports.
There is no METAR data available at 05D. Showing METAR data for 08D (23 mi شمال).
محفوظات أحدث تقرير روتيني عن حالة الطقس من أجل الطيران (الميتار) 08D ( لا توجد بيانات لـ05D)
| Date | Time (CDT) | Flight Rules | Wind Dir. | Speed | Type | Height AGL (ft) | Visibility | Temp (°C) | Temp (°F) | Dew Point (°C) | Dew Point (°F) | Rel. Humid. | Pressure | Density Altitude | Remarks |
|---|---|---|---|---|---|---|---|---|---|---|---|---|---|---|---|
| 04-سبت | 20:15 | VFR | 90° | 10 kt | 10 miles | 25° | 77° | 18° | 64° | 65% | 29.88 in Hg | 3,964 ft | Wind gusting to 20 KT | ||
| 04-سبت | 19:55 | VFR | 100° | 14 kt | 10 miles | 26° | 78° | 18° | 64° | 61% | 29.87 in Hg | 4,094 ft | Wind gusting to 22 KT | ||
| 04-سبت | 19:35 | VFR | 100° | 12 kt | 10 miles | 26° | 78° | 18° | 64° | 61% | 29.87 in Hg | 4,094 ft | Wind gusting to 21 KT | ||
| 04-سبت | 19:15 | VFR | 100° | 17 kt | 10 miles | 27° | 80° | 17° | 62° | 54% | 29.87 in Hg | 4,214 ft | Wind gusting to 26 KT | ||
| 04-سبت | 18:55 | VFR | 90° | 16 kt | 10 miles | 27° | 80° | 17° | 62° | 54% | 29.87 in Hg | 4,214 ft | Wind gusting to 24 KT | ||
| 04-سبت | 18:35 | VFR | 100° | 18 kt | 10 miles | 28° | 82° | 17° | 62° | 51% | 29.87 in Hg | 4,334 ft | Wind gusting to 25 KT | ||
| 04-سبت | 18:15 | VFR | 100° | 18 kt | 10 miles | 28° | 82° | 17° | 62° | 51% | 29.87 in Hg | 4,334 ft | Wind gusting to 24 KT | ||
| 04-سبت | 17:55 | VFR | 100° | 19 kt | 10 miles | 28° | 82° | 17° | 62° | 51% | 29.87 in Hg | 4,334 ft | |||
| 04-سبت | 17:35 | VFR | 110° | 13 kt | 10 miles | 28° | 82° | 17° | 62° | 51% | 29.87 in Hg | 4,334 ft | Wind gusting to 25 KT | ||
| 04-سبت | 17:15 | VFR | 110° | 18 kt | 10 miles | 28° | 82° | 17° | 62° | 51% | 29.87 in Hg | 4,334 ft | Wind gusting to 24 KT | ||
| 04-سبت | 16:55 | VFR | 110° | 17 kt | 10 miles | 28° | 82° | 17° | 62° | 51% | 29.87 in Hg | 4,334 ft | Wind gusting to 23 KT | ||
| 04-سبت | 16:35 | VFR | 110° | 16 kt | 10 miles | 28° | 82° | 16° | 60° | 48% | 29.87 in Hg | 4,334 ft | Wind gusting to 22 KT | ||
| 04-سبت | 16:15 | VFR | 110° | 19 kt | 10 miles | 28° | 82° | 16° | 60° | 48% | 29.88 in Hg | 4,324 ft | |||
| 04-سبت | 15:55 | VFR | 110° | 17 kt | 10 miles | 28° | 82° | 16° | 60° | 48% | 29.88 in Hg | 4,324 ft | Wind gusting to 24 KT | ||
| 04-سبت | 15:35 | VFR | 110° | 16 kt | 10 miles | 29° | 84° | 15° | 59° | 43% | 29.88 in Hg | 4,444 ft | Wind gusting to 25 KT | ||
| 04-سبت | 15:15 | VFR | 110° | 17 kt | 10 miles | 28° | 82° | 15° | 59° | 45% | 29.88 in Hg | 4,324 ft | Wind gusting to 22 KT | ||
| 04-سبت | 14:55 | VFR | 90° | 14 kt | 10 miles | 28° | 82° | 15° | 59° | 45% | 29.89 in Hg | 4,314 ft | Wind gusting to 23 KT | ||
| 04-سبت | 14:35 | VFR | 110° | 17 kt | 10 miles | 27° | 80° | 15° | 59° | 48% | 29.90 in Hg | 4,184 ft | Wind gusting to 23 KT | ||
| 04-سبت | 14:15 | VFR | 120° | 16 kt | 10 miles | 27° | 80° | 15° | 59° | 48% | 29.91 in Hg | 4,174 ft | Wind gusting to 22 KT | ||
| 04-سبت | 13:55 | VFR | 130° | 15 kt | 10 miles | 27° | 80° | 16° | 60° | 51% | 29.92 in Hg | 4,164 ft | Wind gusting to 21 KT | ||
| 04-سبت | 13:35 | VFR | 120° | 15 kt | 10 miles | 27° | 80° | 17° | 62° | 54% | 29.93 in Hg | 4,154 ft | Wind gusting to 21 KT | ||
| 04-سبت | 13:15 | VFR | 120° | 15 kt | 10 miles | 26° | 78° | 17° | 62° | 58% | 29.93 in Hg | 4,034 ft | Wind gusting to 20 KT | ||
| 04-سبت | 12:55 | VFR | 120° | 12 kt | 10 miles | 25° | 77° | 18° | 64° | 65% | 29.94 in Hg | 3,904 ft | Wind gusting to 18 KT | ||
| 04-سبت | 12:35 | VFR | 100° | 11 kt | 10 miles | 24° | 75° | 18° | 64° | 69% | 29.94 in Hg | 3,784 ft | Wind gusting to 17 KT |
تسجيل الدخول
| مُتصفحك غير مُدعَّم. قم بترقية متصفحك |
